createdAt,value
2023-07-03T00:00:11.392Z,215.11
2023-07-03T00:01:11.367Z,210.84
2023-07-03T00:02:11.438Z,211.05
2023-07-03T00:03:11.419Z,210.62
2023-07-03T00:04:11.453Z,210.56
2023-07-03T00:05:11.432Z,209.35
2023-07-03T00:06:11.366Z,211.76
2023-07-03T00:07:11.352Z,209.58
2023-07-03T00:08:11.330Z,211.03
2023-07-03T00:09:11.314Z,210.92
2023-07-03T00:10:11.325Z,211.91
2023-07-03T00:11:11.338Z,213.85
2023-07-03T00:12:11.296Z,212.51
2023-07-03T00:13:11.339Z,211.93
2023-07-03T00:14:11.291Z,213.21
2023-07-03T00:15:11.314Z,211.46
2023-07-03T00:16:11.371Z,209.41
2023-07-03T00:17:11.291Z,209.58
2023-07-03T00:18:11.320Z,208.56
2023-07-03T00:19:11.295Z,206.75
2023-07-03T00:20:11.307Z,204.24
2023-07-03T00:21:11.286Z,206.07
2023-07-03T00:22:11.300Z,203.48
2023-07-03T00:23:11.309Z,203.68
2023-07-03T00:24:11.298Z,204.09
2023-07-03T00:25:11.325Z,202.14
2023-07-03T00:26:11.331Z,201.81
2023-07-03T00:27:11.281Z,202.43
2023-07-03T00:28:11.310Z,202.45
2023-07-03T00:29:11.330Z,203.09
2023-07-03T00:30:11.288Z,199.29
2023-07-03T00:31:11.349Z,197.61
2023-07-03T00:32:11.327Z,196.46
2023-07-03T00:33:11.319Z,195.88
2023-07-03T00:34:11.326Z,195.45
2023-07-03T00:35:11.341Z,192.86
2023-07-03T00:36:11.350Z,193.39
2023-07-03T00:37:11.324Z,195.43
2023-07-03T00:38:11.361Z,194.53
2023-07-03T00:39:11.412Z,198.67
2023-07-03T00:40:11.422Z,199.87
2023-07-03T00:41:11.391Z,200.16
2023-07-03T00:42:11.380Z,199.44
2023-07-03T00:43:11.422Z,199.98
2023-07-03T00:44:11.397Z,200.90
2023-07-03T00:45:11.422Z,202.87
2023-07-03T00:46:11.443Z,202.02
2023-07-03T00:47:11.444Z,206.52
2023-07-03T00:48:11.423Z,205.27
2023-07-03T00:49:11.432Z,207.91
2023-07-03T00:50:11.455Z,208.80
2023-07-03T00:51:11.463Z,208.68
2023-07-03T00:52:11.442Z,205.65
2023-07-03T00:53:14.160Z,208.29
2023-07-03T00:54:11.458Z,208.42
2023-07-03T00:55:11.466Z,208.65
2023-07-03T00:56:11.463Z,209.86
2023-07-03T00:57:11.437Z,209.68
2023-07-03T00:58:11.447Z,211.68
2023-07-03T00:59:11.434Z,209.59
2023-07-03T01:00:11.405Z,206.45
2023-07-03T01:01:11.436Z,207.29
2023-07-03T01:02:11.432Z,205.11
2023-07-03T01:03:11.386Z,203.29
2023-07-03T01:04:11.404Z,203.64
2023-07-03T01:05:11.532Z,203.79
2023-07-03T01:06:11.397Z,202.58
2023-07-03T01:07:11.364Z,201.85
2023-07-03T01:08:11.382Z,202.63
2023-07-03T01:09:11.351Z,203.62
2023-07-03T01:10:11.361Z,200.43
2023-07-03T01:11:11.340Z,199.45
2023-07-03T01:12:11.374Z,200.27
2023-07-03T01:13:11.335Z,198.74
2023-07-03T01:14:11.382Z,201.28
2023-07-03T01:15:11.350Z,203.59
2023-07-03T01:16:11.339Z,202.93
2023-07-03T01:17:11.301Z,205.55
2023-07-03T01:18:11.285Z,207.30
2023-07-03T01:19:11.297Z,210.36
2023-07-03T01:20:11.300Z,213.49
2023-07-03T01:21:11.274Z,216.25
2023-07-03T01:22:11.290Z,218.16
2023-07-03T01:23:11.273Z,219.99
2023-07-03T01:24:11.293Z,221.33
2023-07-03T01:25:11.234Z,226.12
2023-07-03T01:26:11.230Z,229.54
2023-07-03T01:27:11.293Z,233.43
2023-07-03T01:28:11.256Z,232.34
2023-07-03T01:29:11.219Z,235.18
2023-07-03T01:30:11.202Z,233.11
2023-07-03T01:31:11.213Z,236.22
2023-07-03T01:32:11.188Z,237.46
2023-07-03T01:33:11.208Z,239.00
2023-07-03T01:34:11.195Z,241.18
2023-07-03T01:35:11.179Z,241.34
2023-07-03T01:36:11.190Z,239.71
2023-07-03T01:37:11.187Z,238.81
2023-07-03T01:38:11.167Z,238.91
2023-07-03T01:39:11.167Z,238.81
2023-07-03T01:40:11.181Z,240.07
2023-07-03T01:41:11.139Z,242.03
2023-07-03T01:42:11.154Z,241.47
2023-07-03T01:43:11.137Z,242.67
2023-07-03T01:44:11.107Z,242.06
2023-07-03T01:45:11.147Z,242.73
2023-07-03T01:46:11.189Z,241.76
2023-07-03T01:47:11.114Z,243.63
2023-07-03T01:48:11.079Z,243.00
2023-07-03T01:49:11.065Z,245.35
2023-07-03T01:50:11.076Z,245.14
2023-07-03T01:51:11.073Z,246.47
2023-07-03T01:52:11.073Z,249.50
2023-07-03T01:53:11.046Z,249.82
2023-07-03T01:54:11.091Z,249.36
2023-07-03T01:55:11.100Z,246.49
2023-07-03T01:56:11.145Z,247.51
2023-07-03T01:57:11.156Z,250.00
2023-07-03T01:58:11.196Z,245.81
2023-07-03T01:59:11.179Z,247.32
2023-07-03T02:00:11.188Z,246.49
2023-07-03T02:01:11.241Z,244.73
2023-07-03T02:02:11.248Z,246.69
2023-07-03T02:03:11.372Z,242.85
2023-07-03T02:04:11.297Z,242.12
2023-07-03T02:05:11.244Z,242.05
2023-07-03T02:06:11.254Z,240.13
2023-07-03T02:07:11.262Z,240.82
2023-07-03T02:08:11.289Z,242.67
2023-07-03T02:09:11.304Z,242.59
2023-07-03T02:10:11.306Z,243.56
2023-07-03T02:11:11.334Z,241.24
2023-07-03T02:12:11.357Z,241.25
2023-07-03T02:13:11.417Z,242.24
2023-07-03T02:14:11.502Z,242.43
2023-07-03T02:15:11.534Z,241.51
2023-07-03T02:16:11.650Z,240.17
2023-07-03T02:17:11.642Z,242.78
2023-07-03T02:18:11.668Z,239.31
2023-07-03T02:19:11.686Z,240.65
2023-07-03T02:20:11.694Z,240.34
2023-07-03T02:21:11.728Z,240.84
2023-07-03T02:22:11.729Z,241.08
2023-07-03T02:23:11.753Z,242.52
2023-07-03T02:24:11.777Z,238.52
2023-07-03T02:25:11.773Z,242.19
2023-07-03T02:26:11.811Z,239.13
2023-07-03T02:27:11.813Z,238.97
2023-07-03T02:28:11.829Z,239.42
2023-07-03T02:29:11.830Z,240.07
2023-07-03T02:30:11.872Z,237.73
2023-07-03T02:31:11.968Z,237.21
2023-07-03T02:32:11.897Z,234.86
2023-07-03T02:33:11.929Z,238.02
2023-07-03T02:34:11.955Z,239.61
2023-07-03T02:35:11.974Z,237.51
2023-07-03T02:36:11.977Z,236.45
2023-07-03T02:37:12.005Z,236.38
2023-07-03T02:38:12.003Z,235.72
2023-07-03T02:39:12.027Z,238.72
2023-07-03T02:40:12.080Z,236.30
2023-07-03T02:41:12.074Z,237.43
2023-07-03T02:42:12.073Z,235.99
2023-07-03T02:43:12.083Z,239.04
2023-07-03T02:44:12.101Z,237.08
2023-07-03T02:45:12.125Z,237.44
2023-07-03T02:46:12.159Z,239.84
2023-07-03T02:47:12.198Z,239.69
2023-07-03T02:48:12.330Z,237.99
2023-07-03T02:49:12.201Z,239.00
2023-07-03T02:50:12.274Z,237.87
2023-07-03T02:51:12.253Z,238.21
2023-07-03T02:52:12.270Z,240.85
2023-07-03T02:53:12.295Z,239.57
2023-07-03T02:54:12.294Z,240.38
2023-07-03T02:55:12.321Z,238.67
2023-07-03T02:56:12.345Z,239.17
2023-07-03T02:57:12.374Z,243.02
2023-07-03T02:58:12.388Z,240.51
2023-07-03T02:59:12.411Z,238.03
2023-07-03T03:00:12.475Z,239.29
2023-07-03T03:01:12.484Z,237.87
2023-07-03T03:02:12.495Z,237.26
2023-07-03T03:03:12.609Z,235.55
2023-07-03T03:04:12.511Z,236.77
2023-07-03T03:05:12.541Z,237.77
2023-07-03T03:06:12.587Z,232.96
2023-07-03T03:07:12.584Z,234.32
2023-07-03T03:08:12.633Z,231.34
2023-07-03T03:09:12.611Z,232.58
2023-07-03T03:10:12.686Z,231.37
2023-07-03T03:11:12.661Z,232.26
2023-07-03T03:12:12.687Z,231.51
2023-07-03T03:13:12.726Z,228.84
2023-07-03T03:14:12.746Z,228.55
2023-07-03T03:15:12.755Z,229.42
2023-07-03T03:16:12.840Z,229.21
2023-07-03T03:17:12.807Z,228.45
2023-07-03T03:18:12.847Z,227.52
2023-07-03T03:19:12.848Z,226.40
2023-07-03T03:20:12.895Z,226.59
2023-07-03T03:21:13.050Z,228.57
2023-07-03T03:22:12.908Z,227.54
2023-07-03T03:23:12.970Z,231.59
2023-07-03T03:24:12.972Z,232.14
2023-07-03T03:25:13.042Z,230.62
2023-07-03T03:26:12.994Z,233.39
2023-07-03T03:27:14.602Z,231.66
2023-07-03T03:28:13.109Z,232.37
2023-07-03T03:29:13.048Z,236.14
2023-07-03T03:30:13.011Z,233.13
2023-07-03T03:31:13.055Z,232.11
2023-07-03T03:32:13.023Z,235.06
2023-07-03T03:33:12.974Z,232.91
2023-07-03T03:34:13.018Z,230.14
2023-07-03T03:35:12.968Z,230.93
2023-07-03T03:36:12.998Z,229.79
2023-07-03T03:37:12.974Z,226.88
2023-07-03T03:38:12.973Z,230.52
2023-07-03T03:39:12.941Z,231.61
2023-07-03T03:40:12.949Z,226.77
2023-07-03T03:41:12.957Z,228.03
2023-07-03T03:42:12.946Z,227.42
2023-07-03T03:43:12.928Z,225.12
2023-07-03T03:44:12.968Z,226.05
2023-07-03T03:45:12.950Z,224.35
2023-07-03T03:46:12.959Z,223.44
2023-07-03T03:47:12.918Z,221.72
2023-07-03T03:48:13.007Z,224.74
2023-07-03T03:49:12.892Z,222.14
2023-07-03T03:50:12.915Z,218.50
2023-07-03T03:51:12.870Z,221.76
2023-07-03T03:52:12.876Z,220.30
2023-07-03T03:53:12.856Z,220.58
2023-07-03T03:54:12.865Z,216.22
2023-07-03T03:55:12.852Z,210.83
2023-07-03T03:56:12.856Z,210.66
2023-07-03T03:57:12.838Z,212.71
2023-07-03T03:58:12.837Z,209.17
2023-07-03T03:59:12.813Z,211.43
2023-07-03T04:00:12.813Z,211.29
2023-07-03T04:01:12.863Z,216.23
2023-07-03T04:02:12.858Z,218.94
2023-07-03T04:03:12.798Z,220.59
2023-07-03T04:04:12.891Z,219.25
2023-07-03T04:05:13.060Z,222.60
2023-07-03T04:06:12.789Z,223.29
2023-07-03T04:07:12.772Z,229.02
2023-07-03T04:08:12.781Z,229.82
2023-07-03T04:09:12.750Z,234.19
2023-07-03T04:10:12.744Z,233.08
2023-07-03T04:11:12.733Z,234.20
2023-07-03T04:12:12.724Z,236.13
2023-07-03T04:13:12.726Z,239.93
2023-07-03T04:14:12.733Z,242.33
2023-07-03T04:15:12.708Z,237.42
2023-07-03T04:16:12.802Z,239.97
2023-07-03T04:17:12.705Z,237.82
2023-07-03T04:18:12.708Z,235.73
2023-07-03T04:19:12.700Z,237.34
2023-07-03T04:20:12.676Z,240.10
2023-07-03T04:21:12.679Z,239.84
2023-07-03T04:22:12.679Z,237.39
2023-07-03T04:23:12.650Z,235.60
2023-07-03T04:24:12.651Z,235.58
2023-07-03T04:25:12.675Z,233.17
2023-07-03T04:26:12.657Z,234.65
2023-07-03T04:27:12.619Z,234.84
2023-07-03T04:28:12.638Z,236.60
2023-07-03T04:29:12.640Z,235.00
2023-07-03T04:30:12.621Z,237.21
2023-07-03T04:31:12.636Z,236.02
2023-07-03T04:32:12.617Z,235.92
2023-07-03T04:33:12.615Z,233.71
2023-07-03T04:34:12.598Z,235.78
2023-07-03T04:35:12.572Z,233.12
2023-07-03T04:36:12.592Z,233.93
2023-07-03T04:37:12.563Z,234.30
2023-07-03T04:38:12.558Z,233.59
2023-07-03T04:39:12.549Z,236.81
2023-07-03T04:40:12.554Z,234.24
2023-07-03T04:41:12.587Z,234.14
2023-07-03T04:42:12.593Z,234.53
2023-07-03T04:43:12.635Z,236.15
2023-07-03T04:44:12.720Z,235.65
2023-07-03T04:45:12.672Z,237.19
2023-07-03T04:46:12.788Z,237.22
2023-07-03T04:47:12.780Z,237.80
2023-07-03T04:48:12.774Z,238.12
2023-07-03T04:49:12.796Z,239.72
2023-07-03T04:50:12.836Z,239.37
2023-07-03T04:51:12.858Z,243.84
2023-07-03T04:52:12.907Z,248.32
2023-07-03T04:53:12.911Z,245.57
2023-07-03T04:54:12.919Z,246.73
2023-07-03T04:55:12.944Z,249.87
2023-07-03T04:56:12.977Z,249.17
2023-07-03T04:57:13.008Z,249.95
2023-07-03T04:58:13.037Z,249.19
2023-07-03T04:59:13.048Z,250.00
2023-07-03T05:00:13.078Z,249.89
2023-07-03T05:01:13.260Z,250.00
2023-07-03T05:02:13.122Z,248.84
2023-07-03T05:03:13.224Z,250.00
2023-07-03T05:04:13.365Z,250.00
2023-07-03T05:05:13.257Z,245.35
2023-07-03T05:06:13.321Z,247.75
2023-07-03T05:07:13.370Z,247.69
2023-07-03T05:08:13.390Z,247.53
2023-07-03T05:09:13.419Z,248.90
2023-07-03T05:10:13.436Z,247.27
2023-07-03T05:11:13.443Z,247.31
2023-07-03T05:12:13.477Z,249.34
2023-07-03T05:13:13.500Z,248.61
2023-07-03T05:14:13.513Z,248.36
2023-07-03T05:15:13.519Z,247.85
2023-07-03T05:16:13.573Z,246.88
2023-07-03T05:17:13.595Z,247.96
2023-07-03T05:18:13.622Z,245.49
2023-07-03T05:19:13.631Z,242.36
2023-07-03T05:20:13.654Z,244.88
2023-07-03T05:21:13.668Z,246.17
2023-07-03T05:22:13.712Z,244.59
2023-07-03T05:23:13.715Z,242.72
2023-07-03T05:24:13.740Z,240.85
2023-07-03T05:25:13.771Z,237.63
2023-07-03T05:26:13.804Z,236.61
2023-07-03T05:27:13.804Z,241.13
2023-07-03T05:28:13.880Z,250.51
2023-07-03T05:29:13.889Z,250.00
2023-07-03T05:30:13.953Z,249.60
2023-07-03T05:31:14.142Z,246.85
2023-07-03T05:32:13.994Z,247.80
2023-07-03T05:33:14.025Z,248.33
2023-07-03T05:34:14.069Z,248.20
2023-07-03T05:35:14.049Z,250.00
2023-07-03T05:36:14.576Z,250.00
2023-07-03T05:37:14.107Z,247.81
2023-07-03T05:38:14.160Z,242.26
2023-07-03T05:39:14.227Z,240.04
2023-07-03T05:40:14.172Z,239.61
2023-07-03T05:41:14.183Z,240.00
2023-07-03T05:42:14.223Z,241.63
2023-07-03T05:43:14.246Z,243.54
2023-07-03T05:44:14.195Z,243.03
2023-07-03T05:45:14.237Z,242.60
2023-07-03T05:46:14.275Z,244.55
2023-07-03T05:47:14.360Z,241.13
2023-07-03T05:48:14.392Z,242.09
2023-07-03T05:49:14.458Z,242.10
2023-07-03T05:50:14.489Z,241.18
2023-07-03T05:51:14.523Z,237.04
2023-07-03T05:52:14.565Z,241.09
2023-07-03T05:53:14.555Z,246.85
2023-07-03T05:54:14.594Z,250.00
2023-07-03T05:55:14.588Z,249.99
2023-07-03T05:56:14.671Z,247.87
2023-07-03T05:57:14.658Z,244.24
2023-07-03T05:58:14.769Z,243.43
2023-07-03T05:59:14.788Z,247.71
2023-07-03T06:00:15.073Z,250.00
2023-07-03T06:01:14.937Z,249.19
2023-07-03T06:02:14.960Z,247.43
2023-07-03T06:03:15.095Z,244.18
2023-07-03T06:04:15.136Z,250.00
2023-07-03T06:05:15.138Z,246.75
2023-07-03T06:06:15.193Z,244.54
2023-07-03T06:07:15.377Z,243.03
2023-07-03T06:08:15.291Z,240.15
2023-07-03T06:09:15.363Z,241.89
2023-07-03T06:10:15.421Z,243.90
2023-07-03T06:11:15.494Z,242.71
2023-07-03T06:12:15.527Z,247.95
2023-07-03T06:13:15.561Z,250.00
2023-07-03T06:14:15.616Z,249.04
2023-07-03T06:15:15.676Z,250.00
2023-07-03T06:16:16.987Z,249.33
2023-07-03T06:17:15.984Z,246.26
2023-07-03T06:18:15.750Z,242.25
2023-07-03T06:19:15.799Z,241.75
2023-07-03T06:20:15.846Z,240.82
2023-07-03T06:21:15.921Z,232.78
2023-07-03T06:22:15.912Z,233.07
2023-07-03T06:23:15.993Z,231.13
2023-07-03T06:24:16.014Z,229.43
2023-07-03T06:25:16.054Z,231.69
2023-07-03T06:26:16.093Z,233.31
2023-07-03T06:27:16.140Z,238.53
2023-07-03T06:28:16.161Z,238.51
2023-07-03T06:29:16.246Z,237.18
2023-07-03T06:30:16.244Z,236.66
2023-07-03T06:31:16.356Z,234.70
2023-07-03T06:32:16.350Z,235.27
2023-07-03T06:33:16.372Z,236.69
2023-07-03T06:34:16.424Z,239.96
2023-07-03T06:35:16.501Z,234.86
2023-07-03T06:36:16.514Z,237.54
2023-07-03T06:37:16.521Z,238.10
2023-07-03T06:38:16.593Z,237.53
2023-07-03T06:39:16.584Z,236.40
2023-07-03T06:40:16.628Z,235.15
2023-07-03T06:41:16.675Z,239.39
2023-07-03T06:42:16.748Z,238.86
2023-07-03T06:43:16.709Z,238.75
2023-07-03T06:44:16.746Z,238.57
2023-07-03T06:45:16.736Z,238.78
2023-07-03T06:46:17.122Z,237.90
2023-07-03T06:47:16.806Z,239.56
2023-07-03T06:48:16.763Z,233.77
2023-07-03T06:49:16.775Z,228.72
2023-07-03T06:50:16.786Z,228.42
2023-07-03T06:51:16.808Z,224.08
2023-07-03T06:52:17.111Z,222.16
2023-07-03T06:53:16.850Z,225.14
2023-07-03T06:54:16.895Z,230.53
2023-07-03T06:55:16.935Z,238.41
2023-07-03T06:56:16.960Z,238.82
2023-07-03T06:57:17.013Z,236.14
2023-07-03T06:58:17.112Z,231.50
2023-07-03T06:59:17.099Z,235.75
2023-07-03T07:00:17.133Z,233.57
2023-07-03T07:01:17.144Z,229.10
2023-07-03T07:02:17.222Z,224.53
2023-07-03T07:03:17.299Z,223.38
2023-07-03T07:04:17.462Z,219.03
2023-07-03T07:05:17.368Z,221.32
2023-07-03T07:06:17.353Z,221.58
2023-07-03T07:07:17.355Z,222.65
2023-07-03T07:08:17.401Z,224.00
2023-07-03T07:09:17.481Z,223.79
2023-07-03T07:10:17.532Z,220.12
2023-07-03T07:11:17.566Z,214.96
2023-07-03T07:12:17.660Z,217.34
2023-07-03T07:13:17.674Z,221.50
2023-07-03T07:14:17.813Z,218.76
2023-07-03T07:15:17.803Z,216.31
2023-07-03T07:16:17.876Z,219.86
2023-07-03T07:17:17.895Z,217.73
2023-07-03T07:18:18.076Z,221.26
2023-07-03T07:19:17.956Z,226.92
2023-07-03T07:20:18.027Z,224.97
2023-07-03T07:21:18.040Z,218.87
2023-07-03T07:22:18.103Z,217.47
2023-07-03T07:23:18.209Z,218.69
2023-07-03T07:24:18.232Z,216.89
2023-07-03T07:25:18.282Z,215.75
2023-07-03T07:26:18.612Z,205.15
2023-07-03T07:27:18.382Z,197.04
2023-07-03T07:28:18.448Z,192.82
2023-07-03T07:29:18.507Z,183.57
2023-07-03T07:30:18.654Z,178.50
2023-07-03T07:31:18.728Z,174.26
2023-07-03T07:32:18.662Z,170.33
2023-07-03T07:33:18.713Z,162.62
2023-07-03T07:34:18.753Z,157.21
2023-07-03T07:35:18.766Z,151.58
2023-07-03T07:36:18.745Z,151.25
2023-07-03T07:37:18.758Z,148.72
2023-07-03T07:38:18.749Z,147.94
2023-07-03T07:39:18.754Z,145.45
2023-07-03T07:40:18.767Z,144.79
2023-07-03T07:41:19.129Z,140.37
2023-07-03T07:42:18.720Z,140.57
2023-07-03T07:43:18.758Z,140.81
2023-07-03T07:44:18.752Z,135.50
2023-07-03T07:45:18.753Z,131.48
2023-07-03T07:46:18.876Z,126.95
2023-07-03T07:47:18.738Z,124.32
2023-07-03T07:48:18.712Z,125.87
2023-07-03T07:49:18.732Z,123.88
2023-07-03T07:50:18.700Z,124.74
2023-07-03T07:51:18.765Z,125.41
2023-07-03T07:52:18.730Z,120.64
2023-07-03T07:53:18.695Z,109.22
2023-07-03T07:54:18.705Z,98.42
2023-07-03T07:55:18.711Z,93.65
2023-07-03T07:56:18.723Z,90.75
2023-07-03T07:57:18.718Z,88.88
2023-07-03T07:58:18.742Z,80.89
2023-07-03T07:59:18.707Z,78.27
2023-07-03T08:00:18.703Z,77.82
2023-07-03T08:01:18.900Z,74.03
2023-07-03T08:02:18.911Z,73.41
2023-07-03T08:03:18.759Z,66.66
2023-07-03T08:04:18.847Z,65.19
2023-07-03T08:05:18.778Z,67.34
2023-07-03T08:06:18.721Z,70.05
2023-07-03T08:07:18.775Z,68.56
2023-07-03T08:08:18.750Z,66.17
2023-07-03T08:09:18.762Z,63.60
2023-07-03T08:10:18.760Z,63.02
2023-07-03T08:11:18.775Z,54.25
2023-07-03T08:12:18.937Z,44.00
2023-07-03T08:13:18.745Z,41.91
2023-07-03T08:14:18.783Z,40.55
2023-07-03T08:15:18.771Z,38.23
2023-07-03T08:16:18.830Z,33.06
2023-07-03T08:17:18.776Z,33.34
2023-07-03T08:18:18.893Z,29.71
2023-07-03T08:19:18.789Z,25.00
2023-07-03T08:20:18.753Z,25.00
2023-07-03T08:21:19.157Z,26.75
2023-07-03T08:22:18.793Z,24.26
2023-07-03T08:23:18.775Z,27.86
2023-07-03T08:24:18.794Z,26.96
2023-07-03T08:25:18.779Z,25.00
2023-07-03T08:26:18.757Z,25.00
2023-07-03T08:27:18.836Z,25.61
2023-07-03T08:28:18.821Z,25.03
2023-07-03T08:29:18.774Z,26.02
2023-07-03T08:30:18.781Z,26.55
2023-07-03T08:31:18.853Z,25.87
2023-07-03T08:32:18.806Z,26.37
2023-07-03T08:33:18.863Z,28.57
2023-07-03T08:34:18.936Z,35.18
2023-07-03T08:37:19.213Z,30.86
2023-07-03T08:38:18.752Z,32.11
2023-07-03T08:39:18.759Z,32.99
2023-07-03T08:40:18.746Z,34.77
2023-07-03T08:41:18.720Z,40.07
2023-07-03T08:42:19.160Z,43.19
2023-07-03T08:43:18.694Z,39.18
2023-07-03T08:44:18.735Z,44.71
2023-07-03T08:45:18.697Z,46.47
2023-07-03T08:46:19.186Z,41.12
2023-07-03T08:47:18.978Z,46.98
2023-07-03T08:48:18.685Z,64.63
2023-07-03T08:49:18.687Z,75.49
2023-07-03T08:50:27.964Z,83.46
2023-07-03T08:51:19.754Z,83.56
2023-07-03T08:52:18.659Z,77.12
2023-07-03T08:53:18.662Z,66.82
2023-07-03T08:54:18.637Z,57.13
2023-07-03T08:55:18.640Z,45.25
2023-07-03T08:56:18.629Z,39.69
2023-07-03T08:57:18.637Z,41.73
2023-07-03T08:58:18.615Z,39.77
2023-07-03T08:59:18.609Z,40.47
2023-07-03T09:00:18.631Z,33.11
2023-07-03T09:01:18.746Z,27.06
2023-07-03T09:02:18.761Z,26.48
2023-07-03T09:03:18.898Z,23.98
2023-07-03T09:04:19.006Z,25.00
2023-07-03T09:05:18.914Z,25.00
2023-07-03T09:06:19.065Z,26.76
2023-07-03T09:07:19.038Z,26.66
2023-07-03T09:08:19.102Z,30.42
2023-07-03T09:09:19.209Z,35.43
2023-07-03T09:10:19.322Z,39.54
2023-07-03T09:11:19.662Z,33.52
2023-07-03T09:12:19.651Z,30.47
2023-07-03T09:13:19.392Z,25.00
2023-07-03T09:14:19.441Z,25.46
2023-07-03T09:15:19.489Z,26.46
2023-07-03T09:16:19.553Z,23.01
2023-07-03T09:17:19.705Z,25.25
2023-07-03T09:18:19.655Z,22.72
2023-07-03T09:19:20.658Z,25.09
2023-07-03T09:20:19.769Z,25.00
2023-07-03T09:21:19.809Z,25.68
2023-07-03T09:22:19.856Z,25.00
2023-07-03T09:23:19.895Z,25.07
2023-07-03T09:24:19.902Z,28.31
2023-07-03T09:25:19.913Z,28.03
2023-07-03T09:26:19.900Z,25.00
2023-07-03T09:27:20.764Z,30.63
2023-07-03T09:28:19.916Z,35.07
2023-07-03T09:29:20.825Z,37.81
2023-07-03T09:30:20.066Z,36.68
2023-07-03T09:31:20.080Z,36.99
2023-07-03T09:32:20.145Z,36.97
2023-07-03T09:33:20.732Z,38.63
2023-07-03T09:34:20.151Z,38.76
2023-07-03T09:35:20.186Z,38.30
2023-07-03T09:36:20.231Z,36.52
2023-07-03T09:37:20.278Z,36.85
2023-07-03T09:38:20.507Z,34.14
2023-07-03T09:39:20.424Z,38.77
2023-07-03T09:40:21.356Z,35.73
2023-07-03T09:41:20.465Z,35.28
2023-07-03T09:42:20.542Z,29.45
2023-07-03T09:43:20.589Z,24.95
2023-07-03T09:44:20.943Z,24.34
2023-07-03T09:45:20.671Z,26.26
2023-07-03T09:46:20.746Z,24.82
2023-07-03T09:47:20.920Z,25.52
2023-07-03T09:48:21.365Z,31.37
2023-07-03T09:49:20.907Z,32.87
2023-07-03T09:50:20.962Z,40.11
2023-07-03T09:51:21.030Z,42.17
2023-07-03T09:52:21.743Z,43.27
2023-07-03T09:53:21.144Z,35.47
2023-07-03T09:54:21.274Z,33.81
2023-07-03T09:55:21.411Z,42.87
2023-07-03T09:56:21.332Z,46.79
2023-07-03T09:57:21.396Z,63.25
2023-07-03T09:58:21.422Z,79.93
2023-07-03T09:59:21.432Z,76.72
2023-07-03T10:00:21.524Z,88.49
2023-07-03T10:07:21.786Z,102.37
2023-07-03T10:08:23.472Z,106.11
2023-07-03T10:11:21.506Z,102.64
2023-07-03T10:12:21.547Z,107.62
2023-07-03T10:13:21.424Z,116.00
2023-07-03T10:14:21.421Z,127.08
2023-07-03T10:15:21.422Z,146.11
2023-07-03T10:16:21.436Z,133.66
2023-07-03T10:17:21.481Z,133.92
2023-07-03T10:18:21.471Z,131.99
2023-07-03T10:19:21.416Z,115.62
2023-07-03T10:20:23.121Z,106.03
2023-07-03T10:21:21.440Z,102.56
2023-07-03T10:22:21.386Z,84.16
2023-07-03T10:23:21.392Z,71.75
2023-07-03T10:24:21.438Z,63.67
2023-07-03T10:25:21.420Z,58.58
2023-07-03T10:26:22.765Z,47.05
2023-07-03T10:27:21.451Z,37.17
2023-07-03T10:28:21.457Z,38.67
2023-07-03T10:29:21.440Z,43.59
2023-07-03T10:30:21.435Z,47.06
2023-07-03T10:31:21.477Z,46.03
2023-07-03T10:32:21.470Z,40.76
2023-07-03T10:33:21.414Z,35.96
2023-07-03T10:34:21.394Z,42.04
2023-07-03T10:35:21.404Z,61.78
2023-07-03T10:36:21.397Z,69.35
2023-07-03T10:37:21.402Z,53.33
2023-07-03T10:38:21.391Z,38.29
2023-07-03T10:39:21.372Z,31.11
2023-07-03T10:40:21.367Z,41.95
2023-07-03T10:41:21.350Z,40.82
2023-07-03T10:42:21.528Z,43.43
2023-07-03T10:43:21.359Z,52.14
2023-07-03T10:44:21.324Z,58.40
2023-07-03T10:45:21.335Z,64.62
2023-07-03T10:46:23.012Z,61.83
2023-07-03T10:47:21.346Z,54.40
2023-07-03T10:48:21.362Z,41.21
2023-07-03T10:49:21.308Z,42.29
2023-07-03T10:50:21.294Z,46.82
2023-07-03T10:51:21.277Z,47.84
2023-07-03T10:52:22.278Z,46.69
2023-07-03T10:53:21.292Z,49.86
2023-07-03T10:54:21.376Z,55.75
2023-07-03T10:55:21.266Z,48.53
2023-07-03T10:56:21.250Z,48.72
2023-07-03T10:57:21.235Z,58.61
2023-07-03T10:58:21.332Z,64.15
2023-07-03T10:59:21.270Z,57.09
2023-07-03T11:00:21.247Z,55.96
2023-07-03T11:01:21.217Z,47.05
2023-07-03T11:02:21.259Z,34.87
2023-07-03T11:03:21.254Z,26.22
2023-07-03T11:04:24.610Z,30.10
2023-07-03T11:05:21.223Z,24.94
2023-07-03T11:06:21.210Z,25.00
2023-07-03T11:07:21.241Z,25.00
2023-07-03T11:08:21.219Z,25.00
2023-07-03T11:09:21.186Z,25.08
2023-07-03T11:10:22.066Z,25.21
2023-07-03T11:11:21.169Z,25.98
2023-07-03T11:12:21.186Z,27.24
2023-07-03T11:13:21.202Z,27.07
2023-07-03T11:14:21.303Z,30.10
2023-07-03T11:15:21.142Z,30.11
2023-07-03T11:16:21.876Z,28.99
2023-07-03T11:17:21.151Z,32.86
2023-07-03T11:20:21.179Z,42.28
2023-07-03T11:23:21.164Z,42.61
2023-07-03T11:24:21.104Z,44.61
2023-07-03T11:25:21.109Z,50.65
2023-07-03T11:28:23.973Z,43.55
2023-07-03T11:29:21.064Z,43.81
2023-07-03T11:30:21.060Z,49.18
2023-07-03T11:31:21.116Z,59.57
2023-07-03T11:32:21.041Z,83.73
2023-07-03T11:33:21.463Z,96.38
2023-07-03T11:36:21.661Z,72.56
2023-07-03T11:37:21.181Z,75.56
2023-07-03T11:40:21.537Z,88.62
2023-07-03T11:44:21.331Z,89.06
2023-07-03T11:45:20.980Z,95.20
2023-07-03T11:46:20.970Z,103.00
2023-07-03T11:47:20.984Z,122.12
2023-07-03T11:48:20.931Z,141.56
2023-07-03T11:49:20.937Z,137.80
2023-07-03T11:50:20.934Z,128.51
2023-07-03T11:51:20.916Z,135.63
2023-07-03T11:52:20.914Z,147.37
2023-07-03T11:53:20.898Z,147.01
2023-07-03T11:54:20.907Z,126.65
2023-07-03T11:55:20.910Z,136.58
2023-07-03T11:56:20.888Z,146.67
2023-07-03T11:57:20.908Z,149.36
2023-07-03T11:58:21.436Z,154.48
2023-07-03T11:59:20.865Z,153.07
2023-07-03T12:00:20.851Z,155.83
2023-07-03T12:01:20.897Z,161.81
2023-07-03T12:02:20.907Z,165.45
2023-07-03T12:03:20.871Z,162.35
2023-07-03T12:04:20.855Z,162.56
2023-07-03T12:05:20.820Z,163.68
2023-07-03T12:06:20.838Z,162.00
2023-07-03T12:07:20.852Z,161.98
2023-07-03T12:08:20.804Z,159.73
2023-07-03T12:09:20.798Z,161.74
2023-07-03T12:10:20.798Z,165.67
2023-07-03T12:11:20.785Z,166.31
2023-07-03T12:12:20.823Z,168.19
2023-07-03T12:13:20.807Z,168.62
2023-07-03T12:14:20.800Z,150.88
2023-07-03T12:15:20.773Z,150.57
2023-07-03T12:16:20.783Z,152.72
2023-07-03T12:17:20.777Z,150.39
2023-07-03T12:18:20.772Z,148.68
2023-07-03T12:19:20.742Z,143.87
2023-07-03T12:20:20.751Z,155.18
2023-07-03T12:21:20.714Z,146.03
2023-07-03T12:22:20.749Z,127.19
2023-07-03T12:23:20.709Z,135.16
2023-07-03T12:24:20.743Z,124.71
2023-07-03T12:25:20.735Z,122.60
2023-07-03T12:26:20.771Z,115.96
2023-07-03T12:27:20.681Z,108.90
2023-07-03T12:28:20.703Z,93.05
2023-07-03T12:29:23.283Z,85.10
2023-07-03T12:30:20.674Z,82.89
2023-07-03T12:31:20.700Z,81.13
2023-07-03T12:32:20.664Z,83.77
2023-07-03T12:33:20.675Z,110.61
2023-07-03T12:34:20.638Z,138.28
2023-07-03T12:35:20.641Z,148.54
2023-07-03T12:36:20.642Z,156.30
2023-07-03T12:37:20.625Z,153.51
2023-07-03T12:38:20.604Z,153.01
2023-07-03T12:39:20.603Z,160.26
2023-07-03T12:40:20.589Z,152.48
2023-07-03T12:41:20.595Z,154.51
2023-07-03T12:42:20.614Z,156.65
2023-07-03T12:43:20.583Z,161.11
2023-07-03T12:44:20.554Z,161.09
2023-07-03T12:45:20.623Z,160.50
2023-07-03T12:46:20.582Z,157.11
2023-07-03T12:47:20.552Z,152.64
2023-07-03T12:48:20.529Z,155.10
2023-07-03T12:49:20.527Z,159.97
2023-07-03T12:50:20.530Z,157.44
2023-07-03T12:51:20.527Z,160.12
2023-07-03T12:52:20.545Z,155.23
2023-07-03T12:53:20.518Z,153.70
2023-07-03T12:54:20.523Z,148.68
2023-07-03T12:55:20.497Z,152.65
2023-07-03T12:56:20.498Z,158.91
2023-07-03T12:57:20.476Z,161.12